createdAt,value
2018-09-15T00:02:00.869Z,21.83
2018-09-15T00:04:30.727Z,21.30
2018-09-15T00:07:00.484Z,22.57
2018-09-15T00:09:30.305Z,22.37
2018-09-15T00:11:59.998Z,25.47
2018-09-15T00:14:29.852Z,24.20
2018-09-15T00:16:59.525Z,26.40
2018-09-15T00:19:29.461Z,29.10
2018-09-15T00:21:59.264Z,38.53
2018-09-15T00:24:29.147Z,38.57
2018-09-15T00:26:59.015Z,37.97
2018-09-15T00:29:28.959Z,44.93
2018-09-15T00:31:58.753Z,42.00
2018-09-15T00:34:28.699Z,54.50
2018-09-15T00:36:58.580Z,55.40
2018-09-15T00:39:28.535Z,55.67
2018-09-15T00:41:58.247Z,54.20
2018-09-15T00:44:28.088Z,57.17
2018-09-15T00:46:58.101Z,53.77
2018-09-15T00:49:27.956Z,60.37
2018-09-15T00:51:57.759Z,66.80
2018-09-15T00:54:27.500Z,64.33
2018-09-15T00:56:57.520Z,67.53
2018-09-15T00:59:27.425Z,57.07
2018-09-15T01:01:57.631Z,55.50
2018-09-15T01:04:27.298Z,60.77
2018-09-15T01:06:56.964Z,46.50
2018-09-15T01:09:26.896Z,48.47
2018-09-15T01:11:56.685Z,48.70
2018-09-15T01:14:26.525Z,53.00
2018-09-15T01:16:56.676Z,42.17
2018-09-15T01:19:26.428Z,40.40
2018-09-15T01:21:56.319Z,37.97
2018-09-15T01:24:26.159Z,44.07
2018-09-15T01:26:56.010Z,33.40
2018-09-15T01:29:25.747Z,34.90
2018-09-15T01:31:55.451Z,40.27
2018-09-15T01:34:25.313Z,31.73
2018-09-15T01:36:55.103Z,30.20
2018-09-15T01:39:24.849Z,31.80
2018-09-15T01:41:54.788Z,30.93
2018-09-15T01:44:24.595Z,34.00
2018-09-15T01:46:54.369Z,39.20
2018-09-15T01:49:24.228Z,44.60
2018-09-15T01:51:54.134Z,41.80
2018-09-15T01:54:23.810Z,43.07
2018-09-15T01:56:53.403Z,36.77
2018-09-15T01:59:23.484Z,43.30
2018-09-15T02:01:53.275Z,42.10
2018-09-15T02:04:23.038Z,38.67
2018-09-15T02:06:53.163Z,42.90
2018-09-15T02:09:22.926Z,46.87
2018-09-15T02:11:52.832Z,53.77
2018-09-15T02:14:22.791Z,58.07
2018-09-15T02:16:52.745Z,50.67
2018-09-15T02:19:22.926Z,53.27
2018-09-15T02:21:52.724Z,53.37
2018-09-15T02:24:22.676Z,63.37
2018-09-15T02:26:52.423Z,56.50
2018-09-15T02:29:22.186Z,64.13
2018-09-15T02:31:52.045Z,54.63
2018-09-15T02:34:22.014Z,53.53
2018-09-15T02:36:52.189Z,55.73
2018-09-15T02:39:21.963Z,58.37
2018-09-15T02:41:51.919Z,56.10
2018-09-15T02:44:21.975Z,61.93
2018-09-15T02:46:52.016Z,59.63
2018-09-15T02:49:21.791Z,56.97
2018-09-15T02:51:51.623Z,66.20
2018-09-15T02:54:21.504Z,56.73
2018-09-15T02:56:51.200Z,56.20
2018-09-15T02:59:20.947Z,53.90
2018-09-15T03:01:50.764Z,52.90
2018-09-15T03:04:20.836Z,48.70
2018-09-15T03:06:50.953Z,54.43
2018-09-15T03:09:20.713Z,48.53
2018-09-15T03:11:50.935Z,45.67
2018-09-15T03:14:21.033Z,42.67
2018-09-15T03:16:50.789Z,49.23
2018-09-15T03:19:20.784Z,41.50
2018-09-15T03:21:50.467Z,37.47
2018-09-15T03:24:20.438Z,47.03
2018-09-15T03:26:50.596Z,44.80
2018-09-15T03:29:20.245Z,44.33
2018-09-15T03:31:50.006Z,43.03
2018-09-15T03:34:19.866Z,44.50
2018-09-15T03:36:49.931Z,46.43
2018-09-15T03:39:19.628Z,49.30
2018-09-15T03:41:49.576Z,47.27
2018-09-15T03:44:19.338Z,53.23
2018-09-15T03:46:49.396Z,54.97
2018-09-15T03:49:19.200Z,46.37
2018-09-15T03:51:49.170Z,51.70
2018-09-15T03:54:20.745Z,60.67
2018-09-15T03:56:51.356Z,63.43
2018-09-15T03:59:21.300Z,61.57
2018-09-15T04:01:51.102Z,61.57
2018-09-15T04:04:21.108Z,65.90
2018-09-15T04:06:51.021Z,59.23
2018-09-15T04:09:20.739Z,52.97
2018-09-15T04:11:50.917Z,55.20
2018-09-15T04:14:20.843Z,54.57
2018-09-15T04:16:50.887Z,64.50
2018-09-15T04:19:20.651Z,56.93
2018-09-15T04:21:50.567Z,64.33
2018-09-15T04:24:20.468Z,55.70
2018-09-15T04:26:50.113Z,53.53
2018-09-15T04:29:19.729Z,52.23
2018-09-15T04:31:50.723Z,65.65
2018-09-15T04:34:20.684Z,51.57
2018-09-15T04:36:51.008Z,55.53
2018-09-15T04:39:21.165Z,51.63
2018-09-15T04:41:51.120Z,61.60
2018-09-15T04:44:20.909Z,57.47
2018-09-15T04:46:50.648Z,66.80
2018-09-15T04:49:20.371Z,59.97
2018-09-15T04:51:50.520Z,64.17
2018-09-15T04:54:20.421Z,74.13
2018-09-15T04:56:50.103Z,64.23
2018-09-15T04:59:20.508Z,73.50
2018-09-15T05:01:50.364Z,77.10
2018-09-15T05:04:20.134Z,75.70
2018-09-15T05:06:49.819Z,74.93
2018-09-15T05:09:19.696Z,72.50
2018-09-15T05:11:49.702Z,70.53
2018-09-15T05:14:19.483Z,63.40
2018-09-15T05:16:49.706Z,71.00
2018-09-15T05:19:19.460Z,57.77
2018-09-15T05:21:49.215Z,64.87
2018-09-15T05:24:19.046Z,59.93
2018-09-15T05:26:48.703Z,60.43
2018-09-15T05:29:18.619Z,59.53
2018-09-15T05:31:48.500Z,64.17
2018-09-15T05:34:18.239Z,61.87
2018-09-15T05:36:47.951Z,62.57
2018-09-15T05:39:17.863Z,63.40
2018-09-15T05:41:49.055Z,66.17
2018-09-15T05:44:18.980Z,70.67
2018-09-15T05:46:48.894Z,69.60
2018-09-15T05:49:18.596Z,68.80
2018-09-15T05:51:48.468Z,66.53
2018-09-15T05:54:24.368Z,87.97
2018-09-15T05:56:55.367Z,84.57
2018-09-15T05:59:26.237Z,76.70
2018-09-15T06:01:59.534Z,70.47
2018-09-15T06:04:31.139Z,75.97
2018-09-15T06:07:01.891Z,68.70
2018-09-15T06:09:34.298Z,70.63
2018-09-15T06:12:06.370Z,87.63
2018-09-15T06:14:37.763Z,86.10
2018-09-15T06:17:09.467Z,83.17
2018-09-15T06:19:40.242Z,97.03
2018-09-15T06:22:12.985Z,81.63
2018-09-15T06:24:43.684Z,75.60
2018-09-15T06:27:13.451Z,76.87
2018-09-15T06:29:43.627Z,72.00
2018-09-15T06:32:13.946Z,72.63
2018-09-15T06:34:43.955Z,79.17
2018-09-15T06:37:13.706Z,65.10
2018-09-15T06:39:43.497Z,61.90
2018-09-15T06:42:13.325Z,59.17
2018-09-15T06:44:43.201Z,54.00
2018-09-15T06:47:12.888Z,48.63
2018-09-15T06:49:42.930Z,49.30
2018-09-15T06:52:12.841Z,54.63
2018-09-15T06:54:42.715Z,48.23
2018-09-15T06:57:12.464Z,50.70
2018-09-15T07:15:30.956Z,53.23
2018-09-15T07:20:46.060Z,46.50
2018-09-15T07:23:15.687Z,46.70
2018-09-15T07:25:45.765Z,39.03
2018-09-15T07:28:15.932Z,44.50
2018-09-15T07:30:45.775Z,44.47
2018-09-15T07:33:15.669Z,37.17
2018-09-15T07:35:45.953Z,39.23
2018-09-15T07:38:15.700Z,36.63
2018-09-15T07:40:45.976Z,35.63
2018-09-15T07:43:15.772Z,28.60
2018-09-15T07:45:46.505Z,27.93
2018-09-15T07:48:16.156Z,30.97
2018-09-15T07:50:46.002Z,29.17
2018-09-15T07:53:15.736Z,27.17
2018-09-15T07:55:45.937Z,29.70
2018-09-15T07:58:16.038Z,25.63
2018-09-15T08:00:45.868Z,26.43
2018-09-15T08:03:15.946Z,27.57
2018-09-15T08:05:45.803Z,26.10
2018-09-15T08:08:16.093Z,26.47
2018-09-15T08:10:45.922Z,25.20
2018-09-15T08:13:15.832Z,30.10
2018-09-15T08:15:45.821Z,32.67
2018-09-15T08:18:15.636Z,29.03
2018-09-15T08:20:45.544Z,42.97
2018-09-15T08:23:15.778Z,27.53
2018-09-15T08:25:45.545Z,45.37
2018-09-15T08:28:15.264Z,31.73
2018-09-15T08:30:45.118Z,33.80
2018-09-15T08:33:15.052Z,27.07
2018-09-15T08:35:45.300Z,20.87
2018-09-15T08:38:15.343Z,24.57
2018-09-15T08:40:45.449Z,20.90
2018-09-15T08:43:15.662Z,20.17
2018-09-15T08:45:48.933Z,20.20
2018-09-15T08:48:19.748Z,17.80
2018-09-15T08:50:49.754Z,23.47
2018-09-15T08:53:19.654Z,22.27
2018-09-15T08:55:55.398Z,20.30
2018-09-15T08:58:25.301Z,14.37
2018-09-15T09:01:01.730Z,11.83
2018-09-15T09:03:31.736Z,15.40
2018-09-15T09:06:01.505Z,15.07
2018-09-15T09:08:32.667Z,16.97
2018-09-15T09:11:02.938Z,19.50
2018-09-15T09:13:32.741Z,20.47
2018-09-15T09:16:02.781Z,18.03
2018-09-15T09:18:32.657Z,19.60
2018-09-15T09:21:02.620Z,22.93
2018-09-15T09:23:32.495Z,12.33
2018-09-15T09:26:02.440Z,11.70
2018-09-15T09:28:31.992Z,11.53
2018-09-15T09:31:02.162Z,13.37
2018-09-15T09:33:32.496Z,12.77
2018-09-15T09:36:02.352Z,16.50
2018-09-15T09:38:32.409Z,12.40
2018-09-15T09:41:02.452Z,10.13
2018-09-15T09:43:32.546Z,12.73
2018-09-15T09:46:02.447Z,10.87
2018-09-15T09:48:32.747Z,19.20
2018-09-15T09:51:02.652Z,12.37
2018-09-15T09:53:32.937Z,10.40
2018-09-15T09:56:02.738Z,12.90
2018-09-15T09:58:32.333Z,10.60
2018-09-15T10:01:07.112Z,11.77
2018-09-15T10:03:37.001Z,10.40
2018-09-15T10:06:07.419Z,18.03
2018-09-15T10:08:37.621Z,13.70
2018-09-15T10:11:07.413Z,14.50
2018-09-15T10:13:37.307Z,12.43
2018-09-15T10:16:07.522Z,13.03
2018-09-15T10:18:37.354Z,15.37
2018-09-15T10:21:09.714Z,12.60
2018-09-15T10:23:39.703Z,9.93
2018-09-15T10:26:09.794Z,26.07
2018-09-15T10:28:39.610Z,9.07
2018-09-15T10:31:09.234Z,9.00
2018-09-15T10:33:39.189Z,8.90
2018-09-15T10:36:09.169Z,9.50
2018-09-15T10:38:39.226Z,12.00
2018-09-15T10:41:09.141Z,10.90
2018-09-15T10:43:39.416Z,11.07
2018-09-15T10:46:09.172Z,9.20
2018-09-15T10:48:39.194Z,11.27
2018-09-15T10:51:09.463Z,8.00
2018-09-15T10:53:39.281Z,9.33
2018-09-15T10:56:08.972Z,8.77
2018-09-15T10:58:38.872Z,8.93
2018-09-15T11:01:08.895Z,10.77
2018-09-15T11:03:38.738Z,9.93
2018-09-15T11:06:08.603Z,8.73
2018-09-15T11:08:38.824Z,11.63
2018-09-15T11:11:08.700Z,20.87
2018-09-15T11:13:39.153Z,16.00
2018-09-15T11:16:08.988Z,7.53
2018-09-15T11:18:38.774Z,9.53
2018-09-15T11:21:08.651Z,9.83
2018-09-15T11:23:38.616Z,8.50
2018-09-15T11:26:08.384Z,9.63
2018-09-15T11:28:38.307Z,7.20
2018-09-15T11:31:08.062Z,14.67
2018-09-15T11:33:37.884Z,11.13
2018-09-15T11:36:07.652Z,11.20
2018-09-15T11:38:37.493Z,7.13
2018-09-15T11:41:07.223Z,8.77
2018-09-15T11:46:07.486Z,9.40
2018-09-15T11:48:37.230Z,7.27
2018-09-15T11:51:07.223Z,8.80
2018-09-15T11:53:37.343Z,8.17
2018-09-15T11:56:07.354Z,7.03
2018-09-15T11:58:37.229Z,8.70
2018-09-15T12:01:07.191Z,15.17
2018-09-15T12:03:37.374Z,12.67
2018-09-15T12:06:07.203Z,13.43
2018-09-15T12:08:36.955Z,12.07
2018-09-15T12:11:07.020Z,11.67
2018-09-15T12:13:36.942Z,8.47
2018-09-15T12:16:06.684Z,9.07
2018-09-15T12:18:36.572Z,7.70
2018-09-15T12:21:06.407Z,7.63
2018-09-15T12:23:36.373Z,9.30
2018-09-15T12:26:06.363Z,10.73
2018-09-15T12:28:36.263Z,7.20
2018-09-15T12:31:06.105Z,6.40
2018-09-15T12:33:36.074Z,12.67
2018-09-15T12:36:06.010Z,9.50
2018-09-15T12:38:35.819Z,5.57
2018-09-15T12:41:05.478Z,8.43
2018-09-15T12:43:35.565Z,22.83
2018-09-15T12:46:05.430Z,10.97
2018-09-15T12:48:35.139Z,11.67
2018-09-15T12:51:05.056Z,18.93
2018-09-15T12:53:34.869Z,8.30
2018-09-15T12:56:04.845Z,6.80
2018-09-15T12:58:35.002Z,8.50
2018-09-15T13:01:05.046Z,6.30
2018-09-15T13:03:34.892Z,6.60
2018-09-15T13:06:05.066Z,7.60
2018-09-15T13:08:37.549Z,7.57
2018-09-15T13:11:07.419Z,11.10
2018-09-15T13:13:37.686Z,9.03
2018-09-15T13:16:07.392Z,9.43
2018-09-15T13:18:37.394Z,6.83
2018-09-15T13:21:07.493Z,6.00
2018-09-15T13:23:37.469Z,5.93
2018-09-15T13:26:07.341Z,7.17
2018-09-15T13:28:37.135Z,6.57
2018-09-15T13:31:06.870Z,6.67
2018-09-15T13:33:36.554Z,6.93
2018-09-15T13:36:06.935Z,5.57
2018-09-15T13:38:36.639Z,7.67
2018-09-15T13:41:06.548Z,7.40
2018-09-15T13:43:36.295Z,5.47
2018-09-15T13:46:06.069Z,10.03
2018-09-15T13:48:36.092Z,7.43
2018-09-15T13:51:06.218Z,5.87
2018-09-15T13:53:36.109Z,5.73
2018-09-15T13:56:05.979Z,7.03
2018-09-15T13:58:35.728Z,12.27
2018-09-15T14:01:05.495Z,8.30
2018-09-15T14:03:35.246Z,5.50
2018-09-15T14:06:04.933Z,6.97
2018-09-15T14:08:34.723Z,6.57
2018-09-15T14:11:04.516Z,6.23
2018-09-15T14:13:34.119Z,7.47
2018-09-15T14:16:03.896Z,15.40
2018-09-15T14:18:33.670Z,9.87
2018-09-15T14:21:03.906Z,4.63
2018-09-15T14:23:33.587Z,5.53
2018-09-15T14:26:03.453Z,4.77
2018-09-15T14:28:33.167Z,4.13
2018-09-15T14:31:02.911Z,13.70
2018-09-15T14:33:32.690Z,6.20
2018-09-15T14:36:08.992Z,6.33
2018-09-15T14:38:38.785Z,9.57
2018-09-15T14:41:08.430Z,7.30
2018-09-15T14:43:38.573Z,9.80
2018-09-15T14:46:08.511Z,6.50
2018-09-15T14:48:38.382Z,6.30
2018-09-15T14:51:07.971Z,9.20
2018-09-15T14:53:37.889Z,6.00
2018-09-15T14:56:07.792Z,5.87
2018-09-15T14:58:37.396Z,7.53
2018-09-15T15:01:07.278Z,4.77
2018-09-15T15:03:37.334Z,10.13
2018-09-15T15:06:07.430Z,7.23
2018-09-15T15:08:37.255Z,9.43
2018-09-15T15:11:06.998Z,8.27
2018-09-15T15:13:36.936Z,7.33
2018-09-15T15:16:08.231Z,7.73
2018-09-15T15:18:37.935Z,7.13
2018-09-15T15:21:08.263Z,8.87
2018-09-15T15:23:38.278Z,11.53
2018-09-15T15:26:08.133Z,11.43
2018-09-15T15:28:38.146Z,7.43
2018-09-15T15:31:08.191Z,8.53
2018-09-15T15:33:38.203Z,15.07
2018-09-15T15:36:08.410Z,12.30
2018-09-15T15:38:38.029Z,8.90
2018-09-15T15:41:07.965Z,11.63
2018-09-15T15:43:37.811Z,9.17
2018-09-15T15:46:07.918Z,12.17
2018-09-15T15:48:37.683Z,14.50
2018-09-15T15:51:07.708Z,13.23
2018-09-15T15:53:37.478Z,10.60
2018-09-15T15:56:07.380Z,25.53
2018-09-15T15:58:37.685Z,25.17
2018-09-15T16:01:07.391Z,23.60
2018-09-15T16:03:37.057Z,24.40
2018-09-15T16:06:06.879Z,23.80
2018-09-15T16:08:36.654Z,74.70
2018-09-15T16:11:07.042Z,86.20
2018-09-15T16:13:37.322Z,71.43
2018-09-15T16:16:07.088Z,44.30
2018-09-15T16:18:37.102Z,32.03
2018-09-15T16:21:06.812Z,31.00
2018-09-15T16:23:36.492Z,62.00
2018-09-15T16:26:06.188Z,46.80
2018-09-15T16:28:36.252Z,25.57
2018-09-15T16:31:06.086Z,23.10
2018-09-15T16:33:35.823Z,21.67
2018-09-15T16:36:05.706Z,47.97
2018-09-15T16:38:35.506Z,52.43
2018-09-15T16:41:05.516Z,68.27
2018-09-15T16:43:35.862Z,49.80
2018-09-15T16:46:05.444Z,38.27
2018-09-15T16:48:35.730Z,43.27
2018-09-15T16:51:05.754Z,36.23
2018-09-15T16:53:35.319Z,47.27
2018-09-15T16:56:05.244Z,33.20
2018-09-15T16:58:35.428Z,29.27
2018-09-15T17:01:05.761Z,37.83
2018-09-15T17:03:36.657Z,38.87
2018-09-15T17:06:06.370Z,34.37
2018-09-15T17:08:36.199Z,47.50
2018-09-15T17:11:06.456Z,35.63
2018-09-15T17:13:36.311Z,41.17
2018-09-15T17:16:06.109Z,28.33
2018-09-15T17:18:35.999Z,23.93
2018-09-15T17:21:05.978Z,29.73
2018-09-15T17:23:35.966Z,49.80
2018-09-15T17:26:05.964Z,32.67
2018-09-15T17:28:35.699Z,25.13
2018-09-15T17:31:05.822Z,22.30
2018-09-15T17:33:35.641Z,29.33
2018-09-15T17:36:05.379Z,32.37
2018-09-15T17:38:35.395Z,20.60
2018-09-15T17:41:05.186Z,19.07
2018-09-15T17:43:34.965Z,23.83
2018-09-15T17:46:04.680Z,16.00
2018-09-15T17:48:34.595Z,17.53
2018-09-15T17:51:04.666Z,11.53
2018-09-15T17:53:34.462Z,19.57
2018-09-15T17:56:04.255Z,21.20
2018-09-15T17:58:34.304Z,24.03
2018-09-15T18:01:04.060Z,21.40
2018-09-15T18:03:34.217Z,23.20
2018-09-15T18:06:04.133Z,29.97
2018-09-15T18:08:34.131Z,22.00
2018-09-15T18:11:04.096Z,19.27
2018-09-15T18:13:34.020Z,22.73
2018-09-15T18:16:04.463Z,30.20
2018-09-15T18:18:34.259Z,21.23
2018-09-15T18:21:04.050Z,27.50
2018-09-15T18:23:34.125Z,30.40
2018-09-15T18:26:03.833Z,19.97
2018-09-15T18:28:34.066Z,19.30
2018-09-15T18:31:03.771Z,21.17
2018-09-15T18:33:33.699Z,24.57
2018-09-15T18:36:03.680Z,20.60
2018-09-15T18:38:33.405Z,21.33
2018-09-15T18:41:03.140Z,18.03
2018-09-15T18:43:32.869Z,27.80
2018-09-15T18:46:02.749Z,25.90
2018-09-15T18:48:32.404Z,25.77
2018-09-15T18:51:02.317Z,22.00
2018-09-15T18:53:32.093Z,19.50
2018-09-15T18:56:01.851Z,21.77
2018-09-15T18:58:31.747Z,28.57
2018-09-15T19:01:01.673Z,22.13
2018-09-15T19:03:31.678Z,27.23
2018-09-15T19:06:01.419Z,26.00
2018-09-15T19:08:30.949Z,23.70
2018-09-15T19:11:01.033Z,26.17
2018-09-15T19:13:30.791Z,26.10
2018-09-15T19:16:00.680Z,32.90
2018-09-15T19:18:30.963Z,28.23
2018-09-15T19:21:00.778Z,27.23
2018-09-15T19:23:30.411Z,25.97
2018-09-15T19:26:00.274Z,31.23
2018-09-15T19:28:30.183Z,31.07
2018-09-15T19:30:59.913Z,30.00
2018-09-15T19:33:30.050Z,33.93
2018-09-15T19:35:59.699Z,26.27
2018-09-15T19:38:29.621Z,24.30
2018-09-15T19:40:59.413Z,30.67
2018-09-15T19:43:29.872Z,26.40
2018-09-15T19:45:59.500Z,25.83
2018-09-15T19:48:29.433Z,34.83
2018-09-15T19:50:59.187Z,35.20
2018-09-15T19:53:29.057Z,22.20
2018-09-15T19:55:59.033Z,19.77
2018-09-15T19:58:28.985Z,23.00
2018-09-15T20:00:59.067Z,22.60
2018-09-15T20:03:28.979Z,22.53
2018-09-15T20:05:58.742Z,27.70
2018-09-15T20:08:28.918Z,29.20
2018-09-15T20:10:58.792Z,28.13
2018-09-15T20:13:28.683Z,28.03
2018-09-15T20:15:56.905Z,31.73
2018-09-15T20:18:24.841Z,25.43
2018-09-15T20:20:53.451Z,32.90
2018-09-15T20:23:23.318Z,28.43
2018-09-15T20:25:53.065Z,32.30
2018-09-15T20:28:22.804Z,28.17
2018-09-15T20:30:52.508Z,26.47
2018-09-15T20:33:22.489Z,20.77
2018-09-15T20:35:52.543Z,34.57
2018-09-15T20:38:22.314Z,28.13
2018-09-15T20:40:52.075Z,32.33
2018-09-15T20:43:21.922Z,33.73
2018-09-15T20:45:51.714Z,26.60
2018-09-15T20:48:21.555Z,25.03
2018-09-15T20:50:51.365Z,26.67
2018-09-15T20:53:21.291Z,27.90
2018-09-15T20:55:51.115Z,27.20
2018-09-15T20:58:20.739Z,22.17
2018-09-15T21:00:50.708Z,30.13
2018-09-15T21:03:20.836Z,28.13
2018-09-15T21:05:50.608Z,30.10
2018-09-15T21:08:20.295Z,21.43
2018-09-15T21:10:50.326Z,27.43
2018-09-15T21:13:19.989Z,31.87
2018-09-15T21:15:49.777Z,26.77
2018-09-15T21:18:19.501Z,26.00
2018-09-15T21:20:49.623Z,29.60
2018-09-15T21:23:19.695Z,28.10
2018-09-15T21:25:49.591Z,31.33
2018-09-15T21:28:19.301Z,32.33
2018-09-15T21:30:49.236Z,29.30
2018-09-15T21:33:18.950Z,28.23
2018-09-15T21:35:48.727Z,23.53
2018-09-15T21:38:18.755Z,29.30
2018-09-15T21:40:48.775Z,32.57
2018-09-15T21:43:18.771Z,30.70
2018-09-15T21:45:48.922Z,29.90
2018-09-15T21:48:18.633Z,25.93
2018-09-15T21:50:48.371Z,28.43
2018-09-15T21:53:18.211Z,29.93
2018-09-15T21:55:47.951Z,29.33
2018-09-15T21:58:17.602Z,32.20
2018-09-15T22:00:47.616Z,38.07
2018-09-15T22:03:21.410Z,34.73
2018-09-15T22:05:51.430Z,35.97
2018-09-15T22:08:21.765Z,40.33
2018-09-15T22:10:51.647Z,41.53
2018-09-15T22:13:21.439Z,40.53
2018-09-15T22:15:52.061Z,44.87
2018-09-15T22:18:21.870Z,40.47
2018-09-15T22:20:51.751Z,45.50
2018-09-15T22:23:21.638Z,49.17
2018-09-15T22:25:51.318Z,46.17
2018-09-15T22:28:21.066Z,47.80
2018-09-15T22:30:50.774Z,47.70
2018-09-15T22:33:20.708Z,50.87
2018-09-15T22:35:50.685Z,57.00
2018-09-15T22:38:20.481Z,50.93
2018-09-15T22:40:50.622Z,49.37
2018-09-15T22:43:20.512Z,45.27
2018-09-15T22:45:50.311Z,47.93
2018-09-15T22:48:20.175Z,49.13
2018-09-15T22:50:50.087Z,42.10
2018-09-15T22:53:20.127Z,45.10
2018-09-15T22:55:50.037Z,46.03
2018-09-15T22:58:19.808Z,36.33
2018-09-15T23:00:49.423Z,37.50
2018-09-15T23:03:19.369Z,34.07
2018-09-15T23:05:49.603Z,30.50
2018-09-15T23:08:19.906Z,32.07
2018-09-15T23:10:49.984Z,28.57
2018-09-15T23:13:19.683Z,27.73
2018-09-15T23:15:50.007Z,24.60
2018-09-15T23:18:19.993Z,30.53
2018-09-15T23:20:49.901Z,28.90
2018-09-15T23:23:19.925Z,28.63
2018-09-15T23:25:49.675Z,34.10
2018-09-15T23:28:19.608Z,29.57
2018-09-15T23:30:49.391Z,26.97
2018-09-15T23:33:19.104Z,30.50
2018-09-15T23:35:48.894Z,28.00
2018-09-15T23:38:18.619Z,28.67
2018-09-15T23:40:48.307Z,34.33
2018-09-15T23:43:18.102Z,31.47
2018-09-15T23:45:48.042Z,36.27
2018-09-15T23:48:17.813Z,51.67
2018-09-15T23:50:47.484Z,39.27
2018-09-15T23:53:17.309Z,40.38
2018-09-15T23:55:47.109Z,39.93
2018-09-15T23:58:17.021Z,40.97
